Time;durP1;ratioP1;P1;durP2;ratioP2;P2;SDS_P1;SDS_P2;PMS_P1;PMS_P2;Temp;Humidity;BMP_temperature;BMP_pressure;BME280_temperature;BME280_humidity;BME280_pressure;Samples;Min_cycle;Max_cycle;Signal;HPM_P1;HPM_P2
2023/01/20 00:02:00;;;;;;;11.48;7.15;;;1.30;91.10;;;;;;5003512;28;20246;-78
2023/01/20 00:04:26;;;;;;;13.48;8.15;;;1.40;91.10;;;;;;5029412;28;20051;-78
2023/01/20 00:06:51;;;;;;;13.63;7.82;;;1.30;91.10;;;;;;5018909;28;20041;-78
2023/01/20 00:09:17;;;;;;;14.43;9.00;;;1.40;91.10;;;;;;5033649;28;20035;-78
2023/01/20 00:11:43;;;;;;;13.88;8.32;;;1.40;91.10;;;;;;5021157;28;20060;-78
2023/01/20 00:14:09;;;;;;;13.65;8.00;;;1.40;91.10;;;;;;5035437;28;20037;-78
2023/01/20 00:16:35;;;;;;;11.85;7.88;;;1.30;91.10;;;;;;5016222;28;20052;-78
2023/01/20 00:19:00;;;;;;;12.23;7.43;;;1.30;91.10;;;;;;5032535;28;20045;-78
2023/01/20 00:21:26;;;;;;;14.25;7.97;;;1.40;91.10;;;;;;5031576;28;20115;-78
2023/01/20 00:23:51;;;;;;;13.93;8.05;;;1.30;91.10;;;;;;5000058;28;20114;-77
2023/01/20 00:26:18;;;;;;;11.85;7.60;;;1.30;91.10;;;;;;5035205;28;20111;-78
2023/01/20 00:28:44;;;;;;;12.70;7.47;;;1.30;91.10;;;;;;5017710;28;20090;-78
2023/01/20 00:31:17;;;;;;;12.27;7.82;;;1.40;91.30;;;;;;5016592;28;20553;-76
2023/01/20 00:33:43;;;;;;;12.32;7.13;;;1.30;91.10;;;;;;5031820;28;20041;-79
2023/01/20 00:36:09;;;;;;;13.68;7.70;;;1.40;91.10;;;;;;5019102;28;20037;-78
2023/01/20 00:38:34;;;;;;;15.07;9.00;;;1.40;91.10;;;;;;5030257;28;20041;-78
2023/01/20 00:41:00;;;;;;;12.82;8.30;;;1.40;91.10;;;;;;5031484;28;20029;-78
2023/01/20 00:43:25;;;;;;;13.05;8.18;;;1.40;91.10;;;;;;5034569;28;20409;-77
2023/01/20 00:45:51;;;;;;;12.35;7.63;;;1.40;91.10;;;;;;5032548;28;20395;-78
2023/01/20 00:48:16;;;;;;;13.40;7.60;;;1.30;91.10;;;;;;5020552;28;20071;-79
2023/01/20 00:50:42;;;;;;;10.02;6.53;;;1.30;91.10;;;;;;5021158;28;20072;-77
2023/01/20 00:53:07;;;;;;;22.52;11.15;;;1.30;91.20;;;;;;5030000;28;20380;-78
2023/01/20 00:55:33;;;;;;;13.55;8.60;;;1.40;91.20;;;;;;5034788;28;20029;-78
2023/01/20 00:57:58;;;;;;;12.88;8.07;;;1.40;91.20;;;;;;5020939;28;20547;-79
2023/01/20 01:00:24;;;;;;;12.65;7.70;;;1.30;91.20;;;;;;5033378;28;21806;-78
2023/01/20 01:02:50;;;;;;;11.98;7.88;;;1.30;91.20;;;;;;5011045;28;20047;-78
2023/01/20 01:05:15;;;;;;;12.50;8.10;;;1.30;91.20;;;;;;5020625;28;20041;-78
2023/01/20 01:07:41;;;;;;;11.25;7.38;;;1.30;91.20;;;;;;5018843;28;20059;-79
2023/01/20 01:10:08;;;;;;;13.00;7.97;;;1.40;91.20;;;;;;5036430;28;20033;-77
2023/01/20 01:12:33;;;;;;;12.30;7.68;;;1.30;91.20;;;;;;5007350;28;20111;-78
2023/01/20 01:14:59;;;;;;;16.83;9.95;;;1.40;91.20;;;;;;5031262;28;20055;-78
2023/01/20 01:17:24;;;;;;;16.75;9.80;;;1.40;91.20;;;;;;5037489;28;20033;-77
2023/01/20 01:19:53;;;;;;;16.90;9.48;;;1.40;91.20;;;;;;5019396;28;20604;-79
2023/01/20 01:22:19;;;;;;;13.02;8.30;;;1.40;91.30;;;;;;5033167;28;20786;-78
2023/01/20 01:24:44;;;;;;;13.23;7.95;;;1.40;91.20;;;;;;5034086;28;20029;-77
2023/01/20 01:27:10;;;;;;;12.18;7.97;;;1.40;91.20;;;;;;5037453;28;20698;-78
2023/01/20 01:29:35;;;;;;;13.30;8.05;;;1.40;91.30;;;;;;5022325;28;20032;-78
2023/01/20 01:32:01;;;;;;;15.52;8.15;;;1.40;91.30;;;;;;5037221;28;20056;-78
2023/01/20 01:34:26;;;;;;;12.68;7.75;;;1.40;91.20;;;;;;5032087;28;20137;-79
2023/01/20 01:36:52;;;;;;;14.23;8.18;;;1.40;91.30;;;;;;5003774;28;20041;-78
2023/01/20 01:39:18;;;;;;;14.60;9.20;;;1.40;91.30;;;;;;5020419;28;20385;-78
2023/01/20 01:41:43;;;;;;;17.80;10.20;;;1.40;91.30;;;;;;5036535;28;20557;-79
2023/01/20 01:44:10;;;;;;;16.55;9.45;;;1.40;91.30;;;;;;5019263;28;20038;-80
2023/01/20 01:46:36;;;;;;;16.05;9.70;;;1.40;91.30;;;;;;5018077;28;20037;-78
2023/01/20 01:49:14;;;;;;;15.25;8.38;;;1.40;91.30;;;;;;5038280;28;20044;-78
2023/01/20 01:51:51;;;;;;;16.98;9.10;;;1.40;91.30;;;;;;5027465;28;20681;-77
2023/01/20 01:54:17;;;;;;;14.25;8.63;;;1.50;91.30;;;;;;5016860;28;20041;-77
2023/01/20 01:56:43;;;;;;;14.32;8.13;;;1.50;91.30;;;;;;5016835;28;20037;-78
2023/01/20 01:59:09;;;;;;;18.67;10.20;;;1.50;91.30;;;;;;5031900;28;20110;-79
2023/01/20 02:01:35;;;;;;;17.23;9.75;;;1.50;91.30;;;;;;5018079;28;20055;-79
2023/01/20 02:04:15;;;;;;;16.38;9.15;;;1.50;91.30;;;;;;5038813;28;20041;-78
2023/01/20 02:06:43;;;;;;;16.60;9.65;;;1.50;91.30;;;;;;5021705;28;21307;-78
2023/01/20 02:09:08;;;;;;;17.10;9.75;;;1.50;91.30;;;;;;5034304;28;20037;-77
2023/01/20 02:11:47;;;;;;;19.35;10.27;;;1.50;91.30;;;;;;5036937;28;20036;-79
2023/01/20 02:14:13;;;;;;;20.38;11.57;;;1.50;91.30;;;;;;5027406;28;20124;-79
2023/01/20 02:17:33;;;;;;;18.48;9.90;;;1.50;91.30;;;;;;5036253;28;20045;-77
2023/01/20 02:20:27;;;;;;;16.00;9.48;;;1.50;91.40;;;;;;4924553;28;20581;-79
2023/01/20 02:23:26;;;;;;;15.18;8.82;;;1.50;91.30;;;;;;4941743;28;20035;-78
2023/01/20 02:26:12;;;;;;;14.15;8.70;;;1.50;91.30;;;;;;4939328;28;20038;-78
2023/01/20 02:29:02;;;;;;;14.90;8.27;;;1.50;91.30;;;;;;4940129;28;20035;-78
2023/01/20 02:31:51;;;;;;;14.18;8.30;;;1.50;91.30;;;;;;4941870;28;20096;-78
2023/01/20 02:34:45;;;;;;;14.63;9.20;;;1.50;91.30;;;;;;4936043;28;20031;-78
2023/01/20 02:37:26;;;;;;;16.50;9.43;;;1.50;91.30;;;;;;4927017;28;20193;-79
2023/01/20 02:40:07;;;;;;;17.70;10.70;;;1.50;91.30;;;;;;4920667;28;20043;-79
2023/01/20 02:42:40;;;;;;;16.63;9.10;;;1.50;91.30;;;;;;4925967;28;20105;-78
2023/01/20 02:45:20;;;;;;;18.10;9.55;;;1.50;91.30;;;;;;4923321;28;20125;-78
2023/01/20 02:48:07;;;;;;;14.57;8.48;;;1.50;91.30;;;;;;4906010;28;20042;-76
2023/01/20 02:50:39;;;;;;;15.27;8.52;;;1.50;91.70;;;;;;4992794;28;20048;-78
2023/01/20 02:53:05;;;;;;;17.80;9.23;;;1.50;91.40;;;;;;5036194;28;20041;-78
2023/01/20 02:55:41;;;;;;;18.00;9.88;;;1.50;91.40;;;;;;5018202;28;20124;-79
2023/01/20 02:58:12;;;;;;;13.95;8.82;;;1.50;91.40;;;;;;5032578;28;20083;-78
2023/01/20 03:00:49;;;;;;;13.10;8.10;;;1.50;91.40;;;;;;5033561;28;20055;-79
2023/01/20 03:03:35;;;;;;;15.38;8.50;;;1.50;91.40;;;;;;5019949;28;20068;-77
2023/01/20 03:06:02;;;;;;;15.13;8.50;;;1.50;91.40;;;;;;4993203;28;20120;-78
2023/01/20 03:08:29;;;;;;;14.68;8.73;;;1.50;91.40;;;;;;5018926;28;20045;-77
2023/01/20 03:10:55;;;;;;;15.40;8.63;;;1.50;91.40;;;;;;5023785;28;20041;-79
2023/01/20 03:13:44;;;;;;;15.18;8.98;;;1.50;91.40;;;;;;5020195;28;20067;-78
2023/01/20 03:16:13;;;;;;;16.83;9.68;;;1.50;91.40;;;;;;5016085;28;20051;-76
2023/01/20 03:18:39;;;;;;;17.48;9.88;;;1.50;91.40;;;;;;5036763;28;20059;-78
2023/01/20 03:21:05;;;;;;;16.08;10.07;;;1.50;91.40;;;;;;5016279;28;22008;-78
2023/01/20 03:23:33;;;;;;;16.77;10.43;;;1.40;91.40;;;;;;5026087;28;20041;-78
2023/01/20 03:25:59;;;;;;;15.15;9.57;;;1.50;91.40;;;;;;4997573;28;20033;-77
2023/01/20 03:28:25;;;;;;;18.20;10.60;;;1.40;91.40;;;;;;5038298;28;20684;-79
2023/01/20 03:30:51;;;;;;;21.00;9.80;;;1.40;91.40;;;;;;5016171;28;20080;-77
2023/01/20 03:33:16;;;;;;;17.83;9.45;;;1.50;91.40;;;;;;5031473;28;20049;-78
2023/01/20 03:35:42;;;;;;;17.25;10.27;;;1.50;91.40;;;;;;5030645;28;20033;-78
2023/01/20 03:38:08;;;;;;;17.30;9.68;;;1.40;91.40;;;;;;5004941;28;20052;-77
2023/01/20 03:40:39;;;;;;;13.93;8.77;;;1.50;91.40;;;;;;5018916;28;20041;-77
2023/01/20 03:43:22;;;;;;;16.55;9.15;;;1.40;91.40;;;;;;5035572;28;20095;-78
2023/01/20 03:45:51;;;;;;;14.30;8.68;;;1.40;91.50;;;;;;5005182;28;20041;-79
2023/01/20 03:48:52;;;;;;;15.98;9.38;;;1.40;91.40;;;;;;5033828;28;20090;-78
2023/01/20 03:51:25;;;;;;;14.20;8.43;;;1.40;91.50;;;;;;5035057;28;20515;-76
2023/01/20 03:53:57;;;;;;;13.65;8.10;;;1.40;91.40;;;;;;5028947;28;20041;-78
2023/01/20 03:56:40;;;;;;;13.20;8.60;;;1.40;91.40;;;;;;5002308;28;20573;-80
2023/01/20 03:59:06;;;;;;;16.17;9.30;;;1.40;91.50;;;;;;4998364;28;20053;-79
2023/01/20 04:01:35;;;;;;;12.77;8.38;;;1.40;91.50;;;;;;5019624;28;20067;-79
2023/01/20 04:04:00;;;;;;;15.88;9.63;;;1.40;91.40;;;;;;5030005;28;20048;-77
2023/01/20 04:06:26;;;;;;;16.27;9.38;;;1.50;91.50;;;;;;5023838;28;20032;-78
2023/01/20 04:08:57;;;;;;;16.52;9.85;;;1.40;91.50;;;;;;5019550;28;20044;-78
2023/01/20 04:11:23;;;;;;;14.75;8.75;;;1.40;91.50;;;;;;5017396;28;20044;-79
2023/01/20 04:13:49;;;;;;;14.32;8.85;;;1.40;91.50;;;;;;5013872;28;20025;-78
2023/01/20 04:16:15;;;;;;;14.68;7.57;;;1.40;91.50;;;;;;5019824;28;20534;-77
2023/01/20 04:18:42;;;;;;;13.27;8.55;;;1.50;91.50;;;;;;5036173;28;20044;-77
2023/01/20 04:21:11;;;;;;;13.57;8.80;;;1.40;91.50;;;;;;5034200;28;20946;-78
2023/01/20 04:23:42;;;;;;;19.95;10.73;;;1.50;91.50;;;;;;5034888;28;20036;-78
2023/01/20 04:26:08;;;;;;;18.63;10.30;;;1.40;91.50;;;;;;5031821;28;20033;-79
2023/01/20 04:28:34;;;;;;;21.63;11.65;;;1.50;91.50;;;;;;5035342;28;20048;-78
2023/01/20 04:30:59;;;;;;;19.15;11.43;;;1.50;91.50;;;;;;5012425;28;23446;-78
2023/01/20 04:33:25;;;;;;;16.30;9.85;;;1.50;91.50;;;;;;5032140;28;20398;-78
2023/01/20 04:35:50;;;;;;;19.80;10.48;;;1.50;91.50;;;;;;5016849;28;20051;-78
2023/01/20 04:38:16;;;;;;;17.60;10.57;;;1.50;91.50;;;;;;5007181;28;20868;-78
2023/01/20 04:40:41;;;;;;;20.92;10.52;;;1.50;91.50;;;;;;5034274;28;20033;-77
2023/01/20 04:43:08;;;;;;;15.80;9.95;;;1.50;91.50;;;;;;5020968;28;20670;-77
2023/01/20 04:45:34;;;;;;;15.63;9.35;;;1.50;91.50;;;;;;5018926;28;20044;-78
2023/01/20 04:48:00;;;;;;;18.08;10.38;;;1.50;91.50;;;;;;5027645;28;20037;-79
2023/01/20 04:50:25;;;;;;;17.38;9.18;;;1.40;91.50;;;;;;5020484;28;20073;-77
2023/01/20 04:52:54;;;;;;;14.93;9.00;;;1.40;91.50;;;;;;5030875;28;20045;-79
2023/01/20 04:55:20;;;;;;;13.52;8.73;;;1.40;91.50;;;;;;5019321;28;20044;-78
2023/01/20 04:57:46;;;;;;;18.40;10.43;;;1.40;91.50;;;;;;5023631;28;20083;-78
2023/01/20 05:00:17;;;;;;;17.20;9.75;;;1.40;91.50;;;;;;5002835;28;20037;-78
2023/01/20 05:02:43;;;;;;;18.50;11.10;;;1.40;91.50;;;;;;5037753;28;20033;-78
2023/01/20 05:05:09;;;;;;;18.35;10.20;;;1.40;91.50;;;;;;5002418;28;20044;-79
2023/01/20 05:07:34;;;;;;;16.73;10.18;;;1.40;91.80;;;;;;5036543;28;20059;-79
2023/01/20 05:10:00;;;;;;;18.38;10.77;;;1.30;91.40;;;;;;5017565;28;20030;-78
2023/01/20 05:12:25;;;;;;;17.00;10.32;;;1.30;91.40;;;;;;5014456;28;20028;-78
2023/01/20 05:14:51;;;;;;;18.05;10.18;;;1.30;91.40;;;;;;5012635;28;20041;-78
2023/01/20 05:17:16;;;;;;;16.85;9.55;;;1.30;91.40;;;;;;5016946;28;20037;-78
2023/01/20 05:19:42;;;;;;;14.52;9.70;;;1.30;91.40;;;;;;5035468;28;20044;-79
2023/01/20 05:22:08;;;;;;;16.63;9.40;;;1.20;91.40;;;;;;5020578;28;20044;-79
2023/01/20 05:24:33;;;;;;;14.32;9.05;;;1.30;91.40;;;;;;5015955;28;20047;-79
2023/01/20 05:27:00;;;;;;;15.88;9.07;;;1.20;91.40;;;;;;5043023;28;20590;-76
2023/01/20 05:29:26;;;;;;;14.63;8.48;;;1.20;91.40;;;;;;5036832;28;20127;-78
2023/01/20 05:31:52;;;;;;;14.18;8.20;;;1.10;91.30;;;;;;5033124;28;20179;-79
2023/01/20 05:34:17;;;;;;;13.90;7.75;;;1.10;91.30;;;;;;5030803;28;20040;-78
2023/01/20 05:36:43;;;;;;;11.32;7.15;;;1.00;91.20;;;;;;5032929;28;20114;-77
2023/01/20 05:39:11;;;;;;;12.52;7.80;;;1.00;91.20;;;;;;5031791;28;20071;-80
2023/01/20 05:41:36;;;;;;;14.27;8.27;;;1.00;91.30;;;;;;5007011;28;20527;-79
2023/01/20 05:44:02;;;;;;;14.32;7.97;;;0.90;91.30;;;;;;5019958;28;20073;-78
2023/01/20 05:46:27;;;;;;;14.73;9.00;;;0.90;91.30;;;;;;5021383;28;20090;-79
2023/01/20 05:48:53;;;;;;;14.90;8.48;;;0.90;91.30;;;;;;5034493;28;20094;-78
2023/01/20 05:51:19;;;;;;;12.52;7.57;;;0.90;91.30;;;;;;5031228;28;20092;-77
2023/01/20 05:53:44;;;;;;;12.50;8.20;;;0.90;91.30;;;;;;5046647;28;20078;-78
2023/01/20 05:56:14;;;;;;;11.75;6.95;;;0.90;91.30;;;;;;5027333;28;20041;-78
2023/01/20 05:58:40;;;;;;;13.75;7.20;;;0.90;91.30;;;;;;5019656;28;20131;-79
2023/01/20 06:01:10;;;;;;;12.73;7.80;;;0.90;91.30;;;;;;5038149;28;20125;-77
2023/01/20 06:03:36;;;;;;;14.32;7.47;;;0.90;91.40;;;;;;5006023;28;20656;-78
2023/01/20 06:06:02;;;;;;;13.68;7.07;;;0.90;91.40;;;;;;5037819;28;20060;-79
2023/01/20 06:08:28;;;;;;;13.55;8.15;;;0.90;91.40;;;;;;5024002;28;20045;-78
2023/01/20 06:10:53;;;;;;;16.05;9.23;;;0.80;91.30;;;;;;5019398;28;20060;-79
2023/01/20 06:13:19;;;;;;;15.13;7.65;;;0.80;91.30;;;;;;5018921;28;20660;-76
2023/01/20 06:15:49;;;;;;;13.00;8.15;;;0.80;91.30;;;;;;5022712;28;20041;-78
2023/01/20 06:18:14;;;;;;;15.85;8.95;;;0.80;91.30;;;;;;5038319;28;20037;-77
2023/01/20 06:20:40;;;;;;;13.00;8.05;;;0.80;91.30;;;;;;5040615;28;20679;-77
2023/01/20 06:23:05;;;;;;;11.35;7.32;;;0.80;91.30;;;;;;5018762;28;21350;-77
2023/01/20 06:25:31;;;;;;;11.48;7.50;;;0.80;91.30;;;;;;5038893;28;20057;-77
2023/01/20 06:27:56;;;;;;;13.32;8.82;;;0.80;91.40;;;;;;5019914;28;20124;-79
2023/01/20 06:30:22;;;;;;;15.60;8.82;;;0.80;91.40;;;;;;5021071;28;20515;-77
2023/01/20 06:32:47;;;;;;;17.95;10.25;;;0.80;91.40;;;;;;5032945;28;20060;-76
2023/01/20 06:35:13;;;;;;;14.20;8.43;;;0.80;91.40;;;;;;5035329;28;20025;-78
2023/01/20 06:37:39;;;;;;;14.85;8.52;;;0.80;91.30;;;;;;5034163;28;20065;-79
2023/01/20 06:40:05;;;;;;;17.50;9.68;;;0.80;91.30;;;;;;5034376;28;20033;-78
2023/01/20 06:42:31;;;;;;;16.73;9.35;;;0.80;91.30;;;;;;5036075;28;20041;-78
2023/01/20 06:44:56;;;;;;;16.63;9.27;;;0.80;91.30;;;;;;5035253;28;20037;-79
2023/01/20 06:47:22;;;;;;;20.98;10.73;;;0.70;91.30;;;;;;5034922;28;20033;-77
2023/01/20 06:49:47;;;;;;;15.75;9.43;;;0.70;91.30;;;;;;5007723;28;20465;-79
2023/01/20 06:52:13;;;;;;;18.90;10.25;;;0.70;91.40;;;;;;5022262;28;20037;-76
2023/01/20 06:54:38;;;;;;;22.55;11.27;;;0.70;91.30;;;;;;5033902;28;20055;-78
2023/01/20 06:57:04;;;;;;;14.32;9.32;;;0.70;91.30;;;;;;5033830;28;20029;-79
2023/01/20 06:59:29;;;;;;;18.92;10.23;;;0.70;91.40;;;;;;5034763;28;20041;-78
2023/01/20 07:01:55;;;;;;;16.58;9.57;;;0.80;91.40;;;;;;5023932;28;20040;-78
2023/01/20 07:04:20;;;;;;;17.20;9.70;;;0.70;91.30;;;;;;5039329;28;20037;-78
2023/01/20 07:06:46;;;;;;;16.85;9.02;;;0.70;91.40;;;;;;5024239;28;20583;-78
2023/01/20 07:09:11;;;;;;;20.40;10.15;;;0.70;91.30;;;;;;5018367;28;20587;-78
2023/01/20 07:11:37;;;;;;;15.57;9.13;;;0.70;91.30;;;;;;5021988;28;20045;-78
2023/01/20 07:14:03;;;;;;;16.80;9.63;;;0.70;91.30;;;;;;5033609;28;20491;-78
2023/01/20 07:16:29;;;;;;;18.73;11.10;;;0.70;91.30;;;;;;5036425;28;20765;-78
2023/01/20 07:18:54;;;;;;;17.48;10.18;;;0.60;91.30;;;;;;5003824;28;20045;-78
2023/01/20 07:21:20;;;;;;;17.27;9.80;;;0.60;91.30;;;;;;5017713;28;20037;-78
2023/01/20 07:23:45;;;;;;;14.30;8.40;;;0.60;91.30;;;;;;5031962;28;20033;-74
2023/01/20 07:26:13;;;;;;;15.93;8.93;;;0.60;91.30;;;;;;5034852;28;20040;-78
2023/01/20 07:28:38;;;;;;;14.60;7.78;;;0.60;91.30;;;;;;5012983;28;20041;-78
2023/01/20 07:31:05;;;;;;;14.55;8.32;;;0.60;91.30;;;;;;5033030;28;20041;-76
2023/01/20 07:33:31;;;;;;;11.70;6.85;;;0.60;91.30;;;;;;5019033;28;20041;-78
2023/01/20 07:35:57;;;;;;;13.68;7.47;;;0.50;91.30;;;;;;5035046;28;20072;-78
2023/01/20 07:38:22;;;;;;;17.48;9.10;;;0.60;91.30;;;;;;5014080;28;20112;-78
2023/01/20 07:40:48;;;;;;;15.13;8.70;;;0.50;91.20;;;;;;5036493;28;20041;-78
2023/01/20 07:43:13;;;;;;;13.25;7.75;;;0.50;91.20;;;;;;5016261;28;20063;-78
2023/01/20 07:45:39;;;;;;;14.55;7.55;;;0.50;91.20;;;;;;5032911;28;20565;-77
2023/01/20 07:48:06;;;;;;;15.48;8.32;;;0.40;91.10;;;;;;5015283;28;20052;-78
2023/01/20 07:50:32;;;;;;;13.45;7.60;;;0.40;91.10;;;;;;5019254;28;20025;-79
2023/01/20 07:52:58;;;;;;;14.95;8.90;;;0.40;91.20;;;;;;5018262;28;20143;-79
2023/01/20 07:55:24;;;;;;;18.15;10.43;;;0.40;91.20;;;;;;5032650;28;20079;-77
2023/01/20 07:57:49;;;;;;;18.25;9.57;;;0.40;91.20;;;;;;5021431;28;20044;-76
2023/01/20 08:00:17;;;;;;;20.35;10.95;;;0.40;91.20;;;;;;5016208;28;20037;-78
2023/01/20 08:02:42;;;;;;;47.83;21.08;;;0.30;91.10;;;;;;5023063;28;20033;-79
2023/01/20 08:05:08;;;;;;;24.23;12.95;;;0.30;91.20;;;;;;5037354;28;20040;-78
2023/01/20 08:07:34;;;;;;;28.25;13.75;;;0.30;91.20;;;;;;5038173;28;20022;-78
2023/01/20 08:09:59;;;;;;;23.65;12.38;;;0.30;91.20;;;;;;5035486;28;20036;-78
2023/01/20 08:12:25;;;;;;;24.90;13.30;;;0.30;91.20;;;;;;5038377;28;20079;-79
2023/01/20 08:14:50;;;;;;;31.02;16.20;;;0.30;91.30;;;;;;5020490;28;20051;-79
2023/01/20 08:17:16;;;;;;;47.28;22.08;;;0.30;91.30;;;;;;5019961;28;20172;-78
2023/01/20 08:19:41;;;;;;;60.17;27.17;;;0.30;91.30;;;;;;5034831;28;20125;-78
2023/01/20 08:22:07;;;;;;;32.90;15.70;;;0.30;91.30;;;;;;5015729;28;20032;-78
2023/01/20 08:24:32;;;;;;;29.27;15.05;;;0.30;91.20;;;;;;5020974;28;20040;-78
2023/01/20 08:26:58;;;;;;;43.90;20.52;;;0.30;91.20;;;;;;5038908;28;20033;-78
2023/01/20 08:29:23;;;;;;;29.00;14.73;;;0.30;91.20;;;;;;5021974;28;20037;-78
2023/01/20 08:31:49;;;;;;;21.15;12.27;;;0.30;91.30;;;;;;5034787;28;20040;-77
2023/01/20 08:34:17;;;;;;;16.92;9.13;;;0.30;91.30;;;;;;5021503;28;20033;-79
2023/01/20 08:36:43;;;;;;;23.92;12.00;;;0.30;91.60;;;;;;5001333;28;20040;-78
2023/01/20 08:39:09;;;;;;;15.95;9.38;;;0.30;91.20;;;;;;5033893;28;20041;-78
2023/01/20 08:41:36;;;;;;;20.98;10.57;;;0.30;91.20;;;;;;5034066;28;20033;-77
2023/01/20 08:44:03;;;;;;;17.27;9.88;;;0.30;91.20;;;;;;5007384;28;20043;-79
2023/01/20 08:46:28;;;;;;;35.78;17.60;;;0.30;91.20;;;;;;5033258;28;20033;-78
2023/01/20 08:48:55;;;;;;;23.75;12.80;;;0.30;91.20;;;;;;5019058;28;20041;-78
2023/01/20 08:51:25;;;;;;;18.98;10.65;;;0.20;91.20;;;;;;4999654;28;20091;-79
2023/01/20 08:53:50;;;;;;;16.77;8.67;;;0.20;91.10;;;;;;5017944;28;20116;-77
2023/01/20 08:56:16;;;;;;;17.67;9.20;;;0.20;91.20;;;;;;5004277;28;20037;-77
2023/01/20 08:58:42;;;;;;;15.40;8.95;;;0.30;91.20;;;;;;5022867;28;20037;-77
2023/01/20 09:01:12;;;;;;;13.38;7.50;;;0.30;91.20;;;;;;5036425;28;20029;-77
2023/01/20 09:03:38;;;;;;;15.73;8.60;;;0.30;91.20;;;;;;5004995;28;20041;-78
2023/01/20 09:06:05;;;;;;;13.57;7.72;;;0.40;91.30;;;;;;5031949;28;20033;-79
2023/01/20 09:08:31;;;;;;;12.15;8.18;;;0.50;91.20;;;;;;5035081;28;20176;-78
2023/01/20 09:11:07;;;;;;;12.30;8.55;;;0.50;91.20;;;;;;5036394;28;20487;-77
2023/01/20 09:13:32;;;;;;;15.23;9.07;;;0.60;91.30;;;;;;5034454;28;20037;-78
2023/01/20 09:15:58;;;;;;;13.40;8.60;;;0.60;91.20;;;;;;5042613;28;20400;-78
2023/01/20 09:18:24;;;;;;;14.38;8.50;;;0.70;91.20;;;;;;5035726;28;20107;-78
2023/01/20 09:20:49;;;;;;;14.02;8.32;;;0.70;91.10;;;;;;5027047;28;20475;-78
2023/01/20 09:23:15;;;;;;;12.55;8.07;;;0.70;91.10;;;;;;5021745;28;20041;-79
2023/01/20 09:25:40;;;;;;;12.82;7.93;;;0.70;91.00;;;;;;5024039;28;20682;-78
2023/01/20 09:28:06;;;;;;;13.88;7.88;;;0.70;91.00;;;;;;5022206;28;20112;-79
2023/01/20 09:30:31;;;;;;;16.95;10.05;;;0.80;91.00;;;;;;5037311;28;20030;-79
2023/01/20 09:32:57;;;;;;;16.38;10.20;;;0.80;91.00;;;;;;5020108;28;20458;-78
2023/01/20 09:35:22;;;;;;;17.33;9.70;;;0.80;91.00;;;;;;5020314;28;20084;-79
2023/01/20 09:44:00;;;;;;;16.98;9.70;;;0.90;91.10;;;;;;5014275;28;20094;-78
2023/01/20 09:46:36;;;;;;;17.55;9.68;;;0.90;91.10;;;;;;5022837;28;20039;-79
2023/01/20 09:55:12;;;;;;;44.83;13.63;;;1.00;91.10;;;;;;5038160;28;20084;-78
2023/01/20 09:57:39;;;;;;;63.90;19.60;;;1.10;91.10;;;;;;5027722;28;20537;-79
2023/01/20 10:00:12;;;;;;;124.30;32.13;;;1.20;91.20;;;;;;5043257;28;20363;-78
2023/01/20 10:02:38;;;;;;;45.65;15.27;;;1.30;91.20;;;;;;5022896;28;20122;-78
2023/01/20 10:05:24;;;;;;;30.05;12.90;;;1.40;91.20;;;;;;5009563;28;20037;-78
2023/01/20 10:08:00;;;;;;;34.83;14.00;;;1.60;91.30;;;;;;5028427;28;20096;-78
2023/01/20 10:10:33;;;;;;;31.75;13.82;;;1.60;91.20;;;;;;5043641;28;20047;-79
2023/01/20 10:13:09;;;;;;;38.20;13.60;;;1.70;91.10;;;;;;5016705;28;20194;-79
2023/01/20 10:15:35;;;;;;;21.75;12.52;;;1.80;91.10;;;;;;5042693;28;20527;-79
2023/01/20 10:18:08;;;;;;;17.77;9.68;;;1.90;91.10;;;;;;5011914;28;20068;-79
2023/01/20 10:20:48;;;;;;;18.38;10.15;;;1.90;91.00;;;;;;5030654;28;20119;-79
2023/01/20 10:23:28;;;;;;;16.58;9.50;;;2.00;91.00;;;;;;5038472;28;20033;-79
2023/01/20 10:26:10;;;;;;;16.70;9.95;;;2.00;90.90;;;;;;5024734;28;20033;-77
2023/01/20 10:28:38;;;;;;;14.95;8.85;;;2.10;90.90;;;;;;5044605;28;20596;-78
2023/01/20 10:31:04;;;;;;;15.38;10.13;;;2.10;90.90;;;;;;5044223;28;20037;-79
2023/01/20 10:33:38;;;;;;;22.25;10.18;;;2.10;90.90;;;;;;5041771;28;20099;-78
2023/01/20 10:36:07;;;;;;;22.55;11.77;;;2.20;90.90;;;;;;5008842;28;20046;-79
2023/01/20 10:38:54;;;;;;;20.83;10.18;;;2.20;90.90;;;;;;5021607;28;20064;-79
2023/01/20 10:41:35;;;;;;;20.35;11.43;;;2.30;90.90;;;;;;5021665;28;20094;-79
2023/01/20 10:44:00;;;;;;;18.88;11.23;;;2.30;90.80;;;;;;5037874;28;20047;-78
2023/01/20 10:46:32;;;;;;;18.25;10.18;;;2.30;90.80;;;;;;5011400;28;20036;-79
2023/01/20 10:49:10;;;;;;;19.17;10.13;;;2.40;90.80;;;;;;5021800;28;20565;-79
2023/01/20 10:51:41;;;;;;;20.77;11.63;;;2.30;90.70;;;;;;5042535;28;20041;-79
2023/01/20 10:54:30;;;;;;;19.50;11.55;;;2.40;90.70;;;;;;5041467;28;20585;-78
2023/01/20 10:56:57;;;;;;;22.98;12.70;;;2.40;90.70;;;;;;5040295;28;20098;-78
2023/01/20 10:59:33;;;;;;;18.35;10.80;;;2.40;90.70;;;;;;5008143;28;20041;-80
2023/01/20 11:02:03;;;;;;;16.85;9.52;;;2.40;90.70;;;;;;5040574;28;20052;-79
2023/01/20 11:04:28;;;;;;;18.55;10.13;;;2.40;90.70;;;;;;5019798;28;20040;-77
2023/01/20 11:06:55;;;;;;;19.75;10.63;;;2.40;91.10;;;;;;5004828;28;20033;-78
2023/01/20 11:09:36;;;;;;;19.63;11.48;;;2.50;90.80;;;;;;5018515;28;20044;-78
2023/01/20 11:12:03;;;;;;;18.48;11.00;;;2.50;90.80;;;;;;5019175;28;20033;-79
2023/01/20 11:14:28;;;;;;;18.20;9.95;;;2.50;90.80;;;;;;5026059;28;20043;-78
2023/01/20 11:17:00;;;;;;;20.55;10.57;;;2.60;90.80;;;;;;5026042;28;20137;-78
2023/01/20 11:19:26;;;;;;;24.40;12.50;;;2.60;90.70;;;;;;5007589;28;20483;-80
2023/01/20 11:21:51;;;;;;;21.90;11.25;;;2.70;90.70;;;;;;5035486;28;20113;-78
2023/01/20 11:24:43;;;;;;;17.40;10.30;;;2.70;90.70;;;;;;5032750;28;20404;-77
2023/01/20 11:27:16;;;;;;;17.30;9.68;;;2.80;90.70;;;;;;5012272;28;20087;-78
2023/01/20 11:29:55;;;;;;;17.45;9.57;;;2.80;90.70;;;;;;5006929;28;20037;-77
2023/01/20 11:32:30;;;;;;;17.77;10.20;;;2.90;90.70;;;;;;5035271;28;20117;-79
2023/01/20 11:34:56;;;;;;;18.73;9.95;;;3.00;90.60;;;;;;5018185;28;20041;-79
2023/01/20 11:37:24;;;;;;;19.77;11.93;;;3.00;90.60;;;;;;5016372;28;20045;-80
2023/01/20 11:39:50;;;;;;;19.45;11.35;;;3.10;90.60;;;;;;5034873;28;20140;-79
2023/01/20 11:42:42;;;;;;;20.85;10.60;;;3.20;90.60;;;;;;5031782;28;20115;-78
2023/01/20 11:45:21;;;;;;;23.83;13.13;;;3.30;90.50;;;;;;5030697;28;20128;-76
2023/01/20 11:47:59;;;;;;;24.50;13.30;;;3.30;90.40;;;;;;5019665;28;20044;-78
2023/01/20 11:50:39;;;;;;;19.42;10.98;;;3.30;90.40;;;;;;5011306;28;22523;-80
2023/01/20 11:53:24;;;;;;;22.15;11.15;;;3.30;90.30;;;;;;5017796;28;20033;-79
2023/01/20 11:55:51;;;;;;;18.38;10.68;;;3.40;90.30;;;;;;5012507;28;20770;-78
2023/01/20 11:58:19;;;;;;;19.20;11.65;;;3.40;90.30;;;;;;5024683;28;20109;-78
2023/01/20 12:00:45;;;;;;;18.50;10.32;;;3.40;90.30;;;;;;5033032;28;20040;-79
2023/01/20 12:03:32;;;;;;;17.02;10.00;;;3.50;90.30;;;;;;5031466;28;20039;-78
2023/01/20 12:06:21;;;;;;;19.65;10.77;;;3.60;90.30;;;;;;5035686;28;20033;-79
2023/01/20 12:08:58;;;;;;;20.23;10.55;;;3.60;90.20;;;;;;5036237;28;20029;-79
2023/01/20 12:11:44;;;;;;;16.67;9.70;;;3.60;90.20;;;;;;5018492;28;20040;-79
2023/01/20 12:14:22;;;;;;;14.98;9.13;;;3.60;90.20;;;;;;5016047;28;20585;-77
2023/01/20 12:16:55;;;;;;;18.58;10.77;;;3.60;90.10;;;;;;5019214;28;20465;-79
2023/01/20 12:19:26;;;;;;;17.17;9.88;;;3.50;90.00;;;;;;5032370;28;20060;-78
2023/01/20 12:21:52;;;;;;;19.20;10.00;;;3.50;90.00;;;;;;5007887;28;20106;-79
2023/01/20 12:25:06;;;;;;;17.25;10.15;;;3.50;90.00;;;;;;5014459;28;20499;-77
2023/01/20 12:27:32;;;;;;;16.00;9.85;;;3.50;90.00;;;;;;5017945;28;20049;-77
2023/01/20 12:30:05;;;;;;;20.63;10.07;;;3.50;90.10;;;;;;5005011;28;20396;-79
2023/01/20 12:32:32;;;;;;;16.73;10.07;;;3.40;89.90;;;;;;5019730;28;20041;-78
2023/01/20 12:34:58;;;;;;;17.45;10.43;;;3.40;90.00;;;;;;5018619;28;20037;-76
2023/01/20 12:37:56;;;;;;;18.23;10.60;;;3.40;90.00;;;;;;5001325;28;20047;-78
2023/01/20 12:40:28;;;;;;;17.20;10.38;;;3.40;90.00;;;;;;5027327;28;20483;-78
2023/01/20 12:43:15;;;;;;;17.48;9.98;;;3.40;90.00;;;;;;5033232;28;20144;-77
2023/01/20 12:46:37;;;;;;;17.40;10.73;;;3.40;89.90;;;;;;5020062;28;20094;-77
2023/01/20 12:49:17;;;;;;;15.60;8.70;;;3.40;89.90;;;;;;4928183;28;20045;-78
2023/01/20 12:51:57;;;;;;;14.18;8.82;;;3.50;90.00;;;;;;4938852;28;20731;-78
2023/01/20 12:54:29;;;;;;;16.77;9.75;;;3.50;90.00;;;;;;5004954;28;20045;-77
2023/01/20 12:57:10;;;;;;;21.23;11.30;;;3.50;90.00;;;;;;5031689;28;20037;-79
2023/01/20 12:59:42;;;;;;;;;;;3.50;90.00;;;;;;4995069;28;20036;-78
2023/01/20 13:02:26;;;;;;;18.25;10.27;;;3.60;90.00;;;;;;5031930;28;19956;-77
2023/01/20 13:05:43;;;;;;;17.50;10.10;;;3.60;90.00;;;;;;5033480;28;20045;-78
2023/01/20 13:08:15;;;;;;;14.93;8.45;;;3.60;90.00;;;;;;5010503;28;20041;-80
2023/01/20 13:11:03;;;;;;;16.73;9.98;;;3.70;90.00;;;;;;5013641;28;20140;-77